KORS

Orcas Island Airport

Eastsound, Washington, USA
METAR KORS 182135Z AUTO 35005KT 10SM CLR 19/15 A3018 RMK AO2
Observed Flight Rules
Aug-18 @ 21:35 UTC (19 minutes ago) Visual Flight Rules
Wind Visibility Clouds
350° at 5 knots 10 miles
  • Clear skies
Temperatures Readings
Current 19°C / 66°F
Dewpoint 15°C / 59°F
Humidity 78%
Altimeter 30.18" Hg
Pressure 1022 hPa
Elevation 9
METAR KORS 182135Z AUTO 35005KT 10SM CLR 19/15 A3018 RMK AO2
Observed Flight Rules
Aug-18 @ 21:35 UTC
(19 minutes ago)
VFR
Wind Visibility
350° at 5 knots 10 miles
Clouds
  • Clear skies
Temperature Dewpoint
19°C / 66°F 15°C / 59°F
Humidity Altimeter Pressure
78% 30.18" Hg 1022 hPa